sensor_id;sensor_type;location;lat;lon;timestamp;P1;durP1;ratioP1;P2;durP2;ratioP2
2219;SDS011;1116;51.502;7.414;2023-10-08T00:01:53;10.90;;;4.13;;
2219;SDS011;1116;51.502;7.414;2023-10-08T00:04:24;11.30;;;3.60;;
2219;SDS011;1116;51.502;7.414;2023-10-08T00:06:54;11.85;;;3.55;;
2219;SDS011;1116;51.502;7.414;2023-10-08T00:09:25;11.10;;;3.30;;
2219;SDS011;1116;51.502;7.414;2023-10-08T00:12:01;9.02;;;3.47;;
2219;SDS011;1116;51.502;7.414;2023-10-08T00:14:33;7.70;;;3.60;;
2219;SDS011;1116;51.502;7.414;2023-10-08T00:17:13;7.18;;;3.15;;
2219;SDS011;1116;51.502;7.414;2023-10-08T00:19:45;9.25;;;3.63;;
2219;SDS011;1116;51.502;7.414;2023-10-08T00:22:19;7.28;;;3.60;;
2219;SDS011;1116;51.502;7.414;2023-10-08T00:24:51;6.05;;;3.40;;
2219;SDS011;1116;51.502;7.414;2023-10-08T00:27:24;12.40;;;3.47;;
2219;SDS011;1116;51.502;7.414;2023-10-08T00:29:54;11.25;;;3.67;;
2219;SDS011;1116;51.502;7.414;2023-10-08T00:32:29;7.60;;;3.03;;
2219;SDS011;1116;51.502;7.414;2023-10-08T00:34:59;8.15;;;3.47;;
2219;SDS011;1116;51.502;7.414;2023-10-08T00:37:33;8.15;;;3.22;;
2219;SDS011;1116;51.502;7.414;2023-10-08T00:40:03;8.15;;;3.58;;
2219;SDS011;1116;51.502;7.414;2023-10-08T00:42:48;7.22;;;3.45;;
2219;SDS011;1116;51.502;7.414;2023-10-08T00:45:23;7.70;;;3.60;;
2219;SDS011;1116;51.502;7.414;2023-10-08T00:47:59;9.20;;;3.55;;
2219;SDS011;1116;51.502;7.414;2023-10-08T00:50:29;6.47;;;3.47;;
2219;SDS011;1116;51.502;7.414;2023-10-08T00:53:09;8.50;;;3.13;;
2219;SDS011;1116;51.502;7.414;2023-10-08T00:55:47;13.38;;;2.83;;
2219;SDS011;1116;51.502;7.414;2023-10-08T00:58:26;9.40;;;3.17;;
2219;SDS011;1116;51.502;7.414;2023-10-08T01:00:56;10.30;;;3.20;;
2219;SDS011;1116;51.502;7.414;2023-10-08T01:03:29;6.57;;;3.17;;
2219;SDS011;1116;51.502;7.414;2023-10-08T01:06:02;8.73;;;3.63;;
2219;SDS011;1116;51.502;7.414;2023-10-08T01:08:37;9.40;;;3.67;;
2219;SDS011;1116;51.502;7.414;2023-10-08T01:11:17;8.43;;;2.80;;
2219;SDS011;1116;51.502;7.414;2023-10-08T01:13:52;7.35;;;3.25;;
2219;SDS011;1116;51.502;7.414;2023-10-08T01:16:25;10.07;;;4.03;;
2219;SDS011;1116;51.502;7.414;2023-10-08T01:21:39;12.02;;;3.25;;
2219;SDS011;1116;51.502;7.414;2023-10-08T01:24:13;11.38;;;3.17;;
2219;SDS011;1116;51.502;7.414;2023-10-08T01:26:45;9.38;;;3.63;;
2219;SDS011;1116;51.502;7.414;2023-10-08T01:29:15;10.85;;;3.20;;
2219;SDS011;1116;51.502;7.414;2023-10-08T01:31:48;8.70;;;3.50;;
2219;SDS011;1116;51.502;7.414;2023-10-08T01:34:19;11.68;;;4.00;;
2219;SDS011;1116;51.502;7.414;2023-10-08T01:36:54;11.18;;;3.83;;
2219;SDS011;1116;51.502;7.414;2023-10-08T01:39:32;8.65;;;3.78;;
2219;SDS011;1116;51.502;7.414;2023-10-08T01:42:02;6.57;;;3.40;;
2219;SDS011;1116;51.502;7.414;2023-10-08T01:44:41;10.82;;;4.07;;
2219;SDS011;1116;51.502;7.414;2023-10-08T01:47:13;15.75;;;4.10;;
2219;SDS011;1116;51.502;7.414;2023-10-08T01:49:44;9.25;;;3.95;;
2219;SDS011;1116;51.502;7.414;2023-10-08T01:52:16;9.38;;;3.40;;
2219;SDS011;1116;51.502;7.414;2023-10-08T01:54:50;11.48;;;3.70;;
2219;SDS011;1116;51.502;7.414;2023-10-08T01:57:22;9.27;;;3.80;;
2219;SDS011;1116;51.502;7.414;2023-10-08T01:59:52;7.78;;;3.35;;
2219;SDS011;1116;51.502;7.414;2023-10-08T02:02:22;8.18;;;3.55;;
2219;SDS011;1116;51.502;7.414;2023-10-08T02:04:52;8.73;;;3.53;;
2219;SDS011;1116;51.502;7.414;2023-10-08T02:07:23;13.10;;;4.38;;
2219;SDS011;1116;51.502;7.414;2023-10-08T02:09:55;9.52;;;4.78;;
2219;SDS011;1116;51.502;7.414;2023-10-08T02:12:26;9.93;;;3.97;;
2219;SDS011;1116;51.502;7.414;2023-10-08T02:14:57;12.52;;;3.88;;
2219;SDS011;1116;51.502;7.414;2023-10-08T02:17:29;9.15;;;3.60;;
2219;SDS011;1116;51.502;7.414;2023-10-08T02:19:59;8.18;;;3.47;;
2219;SDS011;1116;51.502;7.414;2023-10-08T02:22:31;11.57;;;3.80;;
2219;SDS011;1116;51.502;7.414;2023-10-08T02:25:05;7.70;;;3.45;;
2219;SDS011;1116;51.502;7.414;2023-10-08T02:27:38;9.25;;;4.05;;
2219;SDS011;1116;51.502;7.414;2023-10-08T02:30:08;9.02;;;3.17;;
2219;SDS011;1116;51.502;7.414;2023-10-08T02:32:40;11.50;;;3.70;;
2219;SDS011;1116;51.502;7.414;2023-10-08T02:35:11;10.02;;;3.95;;
2219;SDS011;1116;51.502;7.414;2023-10-08T02:37:42;8.95;;;3.72;;
2219;SDS011;1116;51.502;7.414;2023-10-08T02:40:14;11.88;;;4.32;;
2219;SDS011;1116;51.502;7.414;2023-10-08T02:42:52;8.00;;;3.92;;
2219;SDS011;1116;51.502;7.414;2023-10-08T02:45:25;9.95;;;3.60;;
2219;SDS011;1116;51.502;7.414;2023-10-08T02:47:56;12.07;;;3.97;;
2219;SDS011;1116;51.502;7.414;2023-10-08T02:50:26;10.13;;;3.42;;
2219;SDS011;1116;51.502;7.414;2023-10-08T02:52:59;7.13;;;3.80;;
2219;SDS011;1116;51.502;7.414;2023-10-08T02:55:40;14.15;;;4.18;;
2219;SDS011;1116;51.502;7.414;2023-10-08T02:58:11;12.25;;;3.78;;
2219;SDS011;1116;51.502;7.414;2023-10-08T03:00:46;11.67;;;4.00;;
2219;SDS011;1116;51.502;7.414;2023-10-08T03:03:19;7.65;;;3.65;;
2219;SDS011;1116;51.502;7.414;2023-10-08T03:05:52;8.88;;;3.22;;
2219;SDS011;1116;51.502;7.414;2023-10-08T03:08:23;13.48;;;3.88;;
2219;SDS011;1116;51.502;7.414;2023-10-08T03:11:00;9.15;;;3.75;;
2219;SDS011;1116;51.502;7.414;2023-10-08T03:13:33;9.70;;;3.85;;
2219;SDS011;1116;51.502;7.414;2023-10-08T03:16:05;10.05;;;3.80;;
2219;SDS011;1116;51.502;7.414;2023-10-08T03:18:40;8.17;;;3.40;;
2219;SDS011;1116;51.502;7.414;2023-10-08T03:21:16;12.25;;;3.60;;
2219;SDS011;1116;51.502;7.414;2023-10-08T03:24:09;11.02;;;4.80;;
2219;SDS011;1116;51.502;7.414;2023-10-08T03:26:58;9.63;;;4.38;;
2219;SDS011;1116;51.502;7.414;2023-10-08T03:29:39;11.40;;;4.05;;
2219;SDS011;1116;51.502;7.414;2023-10-08T03:32:12;10.88;;;3.90;;
2219;SDS011;1116;51.502;7.414;2023-10-08T03:34:45;11.43;;;4.53;;
2219;SDS011;1116;51.502;7.414;2023-10-08T03:37:16;13.45;;;4.43;;
2219;SDS011;1116;51.502;7.414;2023-10-08T03:39:56;11.68;;;4.20;;
2219;SDS011;1116;51.502;7.414;2023-10-08T03:42:51;9.35;;;3.50;;
2219;SDS011;1116;51.502;7.414;2023-10-08T03:45:25;8.18;;;3.85;;
2219;SDS011;1116;51.502;7.414;2023-10-08T03:48:08;11.15;;;3.97;;
2219;SDS011;1116;51.502;7.414;2023-10-08T03:50:42;10.85;;;4.25;;
2219;SDS011;1116;51.502;7.414;2023-10-08T03:53:26;14.07;;;4.90;;
2219;SDS011;1116;51.502;7.414;2023-10-08T03:56:09;10.60;;;4.13;;
2219;SDS011;1116;51.502;7.414;2023-10-08T03:58:43;9.77;;;3.83;;
2219;SDS011;1116;51.502;7.414;2023-10-08T04:01:14;7.03;;;3.20;;
2219;SDS011;1116;51.502;7.414;2023-10-08T04:03:48;15.80;;;4.53;;
2219;SDS011;1116;51.502;7.414;2023-10-08T04:06:28;14.65;;;4.53;;
2219;SDS011;1116;51.502;7.414;2023-10-08T04:09:04;11.50;;;4.22;;
2219;SDS011;1116;51.502;7.414;2023-10-08T04:11:43;10.75;;;4.68;;
2219;SDS011;1116;51.502;7.414;2023-10-08T04:14:37;16.13;;;4.70;;
2219;SDS011;1116;51.502;7.414;2023-10-08T04:17:07;14.43;;;4.57;;
2219;SDS011;1116;51.502;7.414;2023-10-08T04:19:37;10.10;;;4.28;;
2219;SDS011;1116;51.502;7.414;2023-10-08T04:22:07;11.55;;;4.25;;
2219;SDS011;1116;51.502;7.414;2023-10-08T04:24:42;10.70;;;4.53;;
2219;SDS011;1116;51.502;7.414;2023-10-08T04:27:12;11.65;;;4.68;;
2219;SDS011;1116;51.502;7.414;2023-10-08T04:29:47;13.82;;;4.63;;
2219;SDS011;1116;51.502;7.414;2023-10-08T04:32:17;13.52;;;4.03;;
2219;SDS011;1116;51.502;7.414;2023-10-08T04:34:52;13.35;;;4.80;;
2219;SDS011;1116;51.502;7.414;2023-10-08T04:37:23;9.13;;;3.58;;
2219;SDS011;1116;51.502;7.414;2023-10-08T04:39:59;13.75;;;4.38;;
2219;SDS011;1116;51.502;7.414;2023-10-08T04:42:31;9.68;;;3.80;;
2219;SDS011;1116;51.502;7.414;2023-10-08T04:45:10;7.80;;;3.92;;
2219;SDS011;1116;51.502;7.414;2023-10-08T04:47:41;14.23;;;3.85;;
2219;SDS011;1116;51.502;7.414;2023-10-08T04:50:11;14.18;;;4.55;;
2219;SDS011;1116;51.502;7.414;2023-10-08T04:52:47;10.93;;;4.30;;
2219;SDS011;1116;51.502;7.414;2023-10-08T04:55:34;12.07;;;3.92;;
2219;SDS011;1116;51.502;7.414;2023-10-08T04:58:14;10.45;;;3.63;;
2219;SDS011;1116;51.502;7.414;2023-10-08T05:01:02;8.23;;;3.85;;
2219;SDS011;1116;51.502;7.414;2023-10-08T05:03:46;11.63;;;3.70;;
2219;SDS011;1116;51.502;7.414;2023-10-08T05:06:34;10.32;;;3.83;;
2219;SDS011;1116;51.502;7.414;2023-10-08T05:09:27;9.07;;;3.80;;
2219;SDS011;1116;51.502;7.414;2023-10-08T05:12:12;16.45;;;4.88;;
2219;SDS011;1116;51.502;7.414;2023-10-08T05:14:57;14.63;;;4.60;;
2219;SDS011;1116;51.502;7.414;2023-10-08T05:17:43;8.82;;;3.47;;
2219;SDS011;1116;51.502;7.414;2023-10-08T05:20:40;14.20;;;4.30;;
2219;SDS011;1116;51.502;7.414;2023-10-08T05:23:26;11.55;;;4.20;;
2219;SDS011;1116;51.502;7.414;2023-10-08T05:26:20;9.32;;;4.13;;
2219;SDS011;1116;51.502;7.414;2023-10-08T05:28:57;9.10;;;4.20;;
2219;SDS011;1116;51.502;7.414;2023-10-08T05:31:50;13.70;;;4.05;;
2219;SDS011;1116;51.502;7.414;2023-10-08T05:34:42;9.30;;;3.80;;
2219;SDS011;1116;51.502;7.414;2023-10-08T05:37:22;10.30;;;3.80;;
2219;SDS011;1116;51.502;7.414;2023-10-08T05:40:04;8.02;;;3.95;;
2219;SDS011;1116;51.502;7.414;2023-10-08T05:42:49;20.77;;;4.97;;
2219;SDS011;1116;51.502;7.414;2023-10-08T05:45:27;11.60;;;4.70;;
2219;SDS011;1116;51.502;7.414;2023-10-08T05:48:01;12.18;;;4.47;;
2219;SDS011;1116;51.502;7.414;2023-10-08T05:50:47;13.65;;;4.32;;
2219;SDS011;1116;51.502;7.414;2023-10-08T05:56:10;14.98;;;4.05;;
2219;SDS011;1116;51.502;7.414;2023-10-08T05:58:55;15.68;;;4.30;;
2219;SDS011;1116;51.502;7.414;2023-10-08T06:01:45;10.60;;;4.13;;
2219;SDS011;1116;51.502;7.414;2023-10-08T06:04:13;12.60;;;4.63;;
2219;SDS011;1116;51.502;7.414;2023-10-08T06:07:12;10.68;;;4.10;;
2219;SDS011;1116;51.502;7.414;2023-10-08T06:09:49;8.32;;;3.17;;
2219;SDS011;1116;51.502;7.414;2023-10-08T06:12:28;10.38;;;4.40;;
2219;SDS011;1116;51.502;7.414;2023-10-08T06:15:16;12.88;;;4.32;;
2219;SDS011;1116;51.502;7.414;2023-10-08T06:18:03;16.52;;;4.28;;
2219;SDS011;1116;51.502;7.414;2023-10-08T06:20:33;11.90;;;3.53;;
2219;SDS011;1116;51.502;7.414;2023-10-08T06:23:09;11.73;;;4.07;;
2219;SDS011;1116;51.502;7.414;2023-10-08T06:25:39;12.63;;;4.20;;
2219;SDS011;1116;51.502;7.414;2023-10-08T06:28:23;8.43;;;4.10;;
2219;SDS011;1116;51.502;7.414;2023-10-08T06:30:54;12.57;;;4.18;;
2219;SDS011;1116;51.502;7.414;2023-10-08T06:33:25;8.25;;;3.67;;
2219;SDS011;1116;51.502;7.414;2023-10-08T06:35:57;11.40;;;3.75;;
2219;SDS011;1116;51.502;7.414;2023-10-08T06:38:43;9.57;;;3.65;;
2219;SDS011;1116;51.502;7.414;2023-10-08T06:41:16;10.50;;;4.40;;
2219;SDS011;1116;51.502;7.414;2023-10-08T06:44:06;8.75;;;4.05;;
2219;SDS011;1116;51.502;7.414;2023-10-08T06:46:41;13.68;;;4.28;;
2219;SDS011;1116;51.502;7.414;2023-10-08T06:49:12;10.68;;;4.10;;
2219;SDS011;1116;51.502;7.414;2023-10-08T06:51:45;11.32;;;5.13;;
2219;SDS011;1116;51.502;7.414;2023-10-08T06:54:19;10.20;;;4.43;;
2219;SDS011;1116;51.502;7.414;2023-10-08T06:56:49;8.13;;;3.75;;
2219;SDS011;1116;51.502;7.414;2023-10-08T06:59:22;9.02;;;4.30;;
2219;SDS011;1116;51.502;7.414;2023-10-08T07:01:58;9.98;;;4.43;;
2219;SDS011;1116;51.502;7.414;2023-10-08T07:04:29;9.27;;;4.57;;
2219;SDS011;1116;51.502;7.414;2023-10-08T07:07:00;12.32;;;5.20;;
2219;SDS011;1116;51.502;7.414;2023-10-08T07:09:38;16.42;;;4.47;;
2219;SDS011;1116;51.502;7.414;2023-10-08T07:12:10;8.30;;;4.43;;
2219;SDS011;1116;51.502;7.414;2023-10-08T07:14:40;13.80;;;5.65;;
2219;SDS011;1116;51.502;7.414;2023-10-08T07:17:13;9.52;;;4.63;;
2219;SDS011;1116;51.502;7.414;2023-10-08T07:19:47;5.72;;;3.22;;
2219;SDS011;1116;51.502;7.414;2023-10-08T07:22:17;9.27;;;2.30;;
2219;SDS011;1116;51.502;7.414;2023-10-08T07:24:52;5.00;;;2.13;;
2219;SDS011;1116;51.502;7.414;2023-10-08T07:27:24;5.43;;;2.38;;
2219;SDS011;1116;51.502;7.414;2023-10-08T07:30:04;4.72;;;1.75;;
2219;SDS011;1116;51.502;7.414;2023-10-08T07:32:37;4.47;;;1.90;;
2219;SDS011;1116;51.502;7.414;2023-10-08T07:35:09;5.80;;;2.20;;
2219;SDS011;1116;51.502;7.414;2023-10-08T07:37:51;3.38;;;1.60;;
2219;SDS011;1116;51.502;7.414;2023-10-08T07:40:26;6.55;;;1.80;;
2219;SDS011;1116;51.502;7.414;2023-10-08T07:42:57;8.05;;;2.13;;
2219;SDS011;1116;51.502;7.414;2023-10-08T07:45:35;6.75;;;2.70;;
2219;SDS011;1116;51.502;7.414;2023-10-08T07:48:05;6.53;;;2.70;;
2219;SDS011;1116;51.502;7.414;2023-10-08T07:50:40;5.13;;;3.13;;
2219;SDS011;1116;51.502;7.414;2023-10-08T07:53:14;7.47;;;2.88;;
2219;SDS011;1116;51.502;7.414;2023-10-08T07:55:49;20.73;;;3.47;;
2219;SDS011;1116;51.502;7.414;2023-10-08T07:58:20;4.70;;;2.58;;
2219;SDS011;1116;51.502;7.414;2023-10-08T08:00:50;6.60;;;3.30;;
2219;SDS011;1116;51.502;7.414;2023-10-08T08:03:21;4.63;;;2.45;;
2219;SDS011;1116;51.502;7.414;2023-10-08T08:05:51;6.28;;;2.38;;
2219;SDS011;1116;51.502;7.414;2023-10-08T08:08:22;6.20;;;2.30;;
2219;SDS011;1116;51.502;7.414;2023-10-08T08:10:59;8.00;;;2.65;;
2219;SDS011;1116;51.502;7.414;2023-10-08T08:13:34;8.68;;;2.65;;
2219;SDS011;1116;51.502;7.414;2023-10-08T08:16:05;4.88;;;2.10;;
2219;SDS011;1116;51.502;7.414;2023-10-08T08:18:49;5.75;;;2.45;;
2219;SDS011;1116;51.502;7.414;2023-10-08T08:21:26;6.65;;;2.42;;
2219;SDS011;1116;51.502;7.414;2023-10-08T08:23:57;6.40;;;2.08;;
2219;SDS011;1116;51.502;7.414;2023-10-08T08:26:34;3.88;;;2.17;;
2219;SDS011;1116;51.502;7.414;2023-10-08T08:29:27;4.40;;;2.40;;
2219;SDS011;1116;51.502;7.414;2023-10-08T08:34:34;3.78;;;1.92;;
2219;SDS011;1116;51.502;7.414;2023-10-08T08:37:04;3.13;;;1.80;;
2219;SDS011;1116;51.502;7.414;2023-10-08T08:39:35;3.70;;;1.75;;
2219;SDS011;1116;51.502;7.414;2023-10-08T08:42:07;2.00;;;0.95;;
2219;SDS011;1116;51.502;7.414;2023-10-08T08:44:38;2.47;;;1.42;;
2219;SDS011;1116;51.502;7.414;2023-10-08T08:47:14;1.83;;;1.00;;
2219;SDS011;1116;51.502;7.414;2023-10-08T08:49:45;1.95;;;0.95;;
2219;SDS011;1116;51.502;7.414;2023-10-08T08:52:20;1.75;;;1.10;;
2219;SDS011;1116;51.502;7.414;2023-10-08T08:54:51;1.45;;;1.05;;
2219;SDS011;1116;51.502;7.414;2023-10-08T08:57:23;1.00;;;0.73;;
2219;SDS011;1116;51.502;7.414;2023-10-08T08:59:54;0.65;;;0.50;;
2219;SDS011;1116;51.502;7.414;2023-10-08T09:02:27;0.63;;;0.40;;
2219;SDS011;1116;51.502;7.414;2023-10-08T09:04:58;0.70;;;0.70;;
2219;SDS011;1116;51.502;7.414;2023-10-08T09:07:51;1.35;;;0.50;;
2219;SDS011;1116;51.502;7.414;2023-10-08T09:10:33;0.38;;;0.30;;
2219;SDS011;1116;51.502;7.414;2023-10-08T09:13:21;2.63;;;0.40;;
2219;SDS011;1116;51.502;7.414;2023-10-08T09:15:52;1.50;;;0.65;;
2219;SDS011;1116;51.502;7.414;2023-10-08T09:18:27;1.58;;;0.60;;
2219;SDS011;1116;51.502;7.414;2023-10-08T09:21:06;2.58;;;0.50;;
2219;SDS011;1116;51.502;7.414;2023-10-08T09:23:39;1.50;;;0.47;;
2219;SDS011;1116;51.502;7.414;2023-10-08T09:26:14;2.57;;;0.80;;
2219;SDS011;1116;51.502;7.414;2023-10-08T09:28:49;1.85;;;0.75;;
2219;SDS011;1116;51.502;7.414;2023-10-08T09:31:22;1.63;;;0.80;;
2219;SDS011;1116;51.502;7.414;2023-10-08T09:33:56;2.05;;;0.80;;
2219;SDS011;1116;51.502;7.414;2023-10-08T09:36:26;2.75;;;0.93;;
2219;SDS011;1116;51.502;7.414;2023-10-08T09:39:01;2.90;;;1.17;;
2219;SDS011;1116;51.502;7.414;2023-10-08T09:41:33;4.25;;;0.95;;
2219;SDS011;1116;51.502;7.414;2023-10-08T09:44:06;4.57;;;1.00;;
2219;SDS011;1116;51.502;7.414;2023-10-08T09:46:38;3.05;;;1.10;;
2219;SDS011;1116;51.502;7.414;2023-10-08T09:49:13;6.43;;;1.40;;
2219;SDS011;1116;51.502;7.414;2023-10-08T09:51:45;5.60;;;1.08;;
2219;SDS011;1116;51.502;7.414;2023-10-08T09:54:17;10.52;;;1.27;;
2219;SDS011;1116;51.502;7.414;2023-10-08T09:56:53;3.95;;;1.05;;
2219;SDS011;1116;51.502;7.414;2023-10-08T09:59:28;6.47;;;2.00;;
2219;SDS011;1116;51.502;7.414;2023-10-08T10:01:59;4.25;;;1.60;;
2219;SDS011;1116;51.502;7.414;2023-10-08T10:04:31;3.08;;;0.80;;
2219;SDS011;1116;51.502;7.414;2023-10-08T10:07:07;7.85;;;1.17;;
2219;SDS011;1116;51.502;7.414;2023-10-08T10:09:42;3.22;;;1.17;;
2219;SDS011;1116;51.502;7.414;2023-10-08T10:12:17;5.22;;;1.20;;
2219;SDS011;1116;51.502;7.414;2023-10-08T10:14:55;5.00;;;0.85;;
2219;SDS011;1116;51.502;7.414;2023-10-08T10:17:27;4.70;;;1.15;;
2219;SDS011;1116;51.502;7.414;2023-10-08T10:20:10;2.92;;;1.05;;
2219;SDS011;1116;51.502;7.414;2023-10-08T10:22:42;3.70;;;1.10;;
2219;SDS011;1116;51.502;7.414;2023-10-08T10:25:15;4.55;;;0.95;;
2219;SDS011;1116;51.502;7.414;2023-10-08T10:30:57;3.97;;;0.75;;
2219;SDS011;1116;51.502;7.414;2023-10-08T10:33:30;2.83;;;1.02;;
2219;SDS011;1116;51.502;7.414;2023-10-08T10:36:01;3.10;;;1.08;;
2219;SDS011;1116;51.502;7.414;2023-10-08T10:38:35;2.47;;;0.95;;
2219;SDS011;1116;51.502;7.414;2023-10-08T10:41:08;2.55;;;0.93;;
2219;SDS011;1116;51.502;7.414;2023-10-08T10:43:38;2.47;;;0.70;;
2219;SDS011;1116;51.502;7.414;2023-10-08T10:46:21;2.97;;;1.02;;
2219;SDS011;1116;51.502;7.414;2023-10-08T10:48:57;2.17;;;0.70;;
2219;SDS011;1116;51.502;7.414;2023-10-08T10:51:45;2.33;;;1.00;;
2219;SDS011;1116;51.502;7.414;2023-10-08T10:54:24;8.90;;;1.35;;
2219;SDS011;1116;51.502;7.414;2023-10-08T10:56:52;1.73;;;0.80;;
2219;SDS011;1116;51.502;7.414;2023-10-08T10:59:34;3.00;;;1.00;;
2219;SDS011;1116;51.502;7.414;2023-10-08T11:02:08;1.70;;;0.57;;
2219;SDS011;1116;51.502;7.414;2023-10-08T11:04:47;3.17;;;0.82;;
2219;SDS011;1116;51.502;7.414;2023-10-08T11:07:20;5.97;;;1.00;;
2219;SDS011;1116;51.502;7.414;2023-10-08T11:09:55;3.38;;;0.82;;
2219;SDS011;1116;51.502;7.414;2023-10-08T11:12:25;1.42;;;0.50;;
2219;SDS011;1116;51.502;7.414;2023-10-08T11:15:09;2.53;;;0.68;;
2219;SDS011;1116;51.502;7.414;2023-10-08T11:17:44;2.03;;;0.50;;
2219;SDS011;1116;51.502;7.414;2023-10-08T11:20:24;2.40;;;0.70;;
2219;SDS011;1116;51.502;7.414;2023-10-08T11:22:56;5.43;;;1.23;;
2219;SDS011;1116;51.502;7.414;2023-10-08T11:25:53;1.67;;;0.60;;
2219;SDS011;1116;51.502;7.414;2023-10-08T11:28:28;3.85;;;0.73;;
2219;SDS011;1116;51.502;7.414;2023-10-08T11:31:00;2.88;;;0.50;;
2219;SDS011;1116;51.502;7.414;2023-10-08T11:33:37;2.60;;;0.85;;
2219;SDS011;1116;51.502;7.414;2023-10-08T11:36:09;4.72;;;0.57;;
2219;SDS011;1116;51.502;7.414;2023-10-08T11:38:52;3.25;;;0.88;;
2219;SDS011;1116;51.502;7.414;2023-10-08T11:41:27;3.67;;;0.57;;
2219;SDS011;1116;51.502;7.414;2023-10-08T11:44:01;3.92;;;0.70;;
2219;SDS011;1116;51.502;7.414;2023-10-08T11:46:32;2.35;;;0.80;;
2219;SDS011;1116;51.502;7.414;2023-10-08T11:49:07;3.78;;;0.70;;
2219;SDS011;1116;51.502;7.414;2023-10-08T11:51:44;1.65;;;0.40;;
2219;SDS011;1116;51.502;7.414;2023-10-08T11:54:18;2.78;;;0.85;;
2219;SDS011;1116;51.502;7.414;2023-10-08T11:56:49;2.90;;;0.50;;
2219;SDS011;1116;51.502;7.414;2023-10-08T11:59:19;2.00;;;0.50;;
2219;SDS011;1116;51.502;7.414;2023-10-08T12:01:52;3.38;;;0.80;;
2219;SDS011;1116;51.502;7.414;2023-10-08T12:04:25;1.45;;;0.30;;
2219;SDS011;1116;51.502;7.414;2023-10-08T12:06:56;2.05;;;0.55;;
2219;SDS011;1116;51.502;7.414;2023-10-08T12:09:29;1.08;;;0.40;;
2219;SDS011;1116;51.502;7.414;2023-10-08T12:12:04;3.35;;;1.20;;
2219;SDS011;1116;51.502;7.414;2023-10-08T12:14:36;1.40;;;0.60;;
2219;SDS011;1116;51.502;7.414;2023-10-08T12:17:06;1.08;;;0.68;;
2219;SDS011;1116;51.502;7.414;2023-10-08T12:19:40;1.52;;;0.68;;
2219;SDS011;1116;51.502;7.414;2023-10-08T12:22:11;3.50;;;0.70;;
2219;SDS011;1116;51.502;7.414;2023-10-08T12:24:46;2.63;;;0.80;;
2219;SDS011;1116;51.502;7.414;2023-10-08T12:27:16;2.97;;;0.73;;
2219;SDS011;1116;51.502;7.414;2023-10-08T12:29:46;0.80;;;0.50;;
2219;SDS011;1116;51.502;7.414;2023-10-08T12:32:16;3.13;;;0.70;;
2219;SDS011;1116;51.502;7.414;2023-10-08T12:34:55;2.60;;;0.80;;
2219;SDS011;1116;51.502;7.414;2023-10-08T12:37:26;4.18;;;0.70;;
2219;SDS011;1116;51.502;7.414;2023-10-08T12:39:57;1.88;;;0.65;;
2219;SDS011;1116;51.502;7.414;2023-10-08T12:42:38;2.17;;;0.50;;
2219;SDS011;1116;51.502;7.414;2023-10-08T12:45:10;3.28;;;0.80;;
2219;SDS011;1116;51.502;7.414;2023-10-08T12:47:50;2.80;;;0.70;;
2219;SDS011;1116;51.502;7.414;2023-10-08T12:50:24;1.63;;;0.60;;
2219;SDS011;1116;51.502;7.414;2023-10-08T12:53:09;2.13;;;0.80;;
2219;SDS011;1116;51.502;7.414;2023-10-08T12:55:39;1.88;;;0.60;;
2219;SDS011;1116;51.502;7.414;2023-10-08T12:58:09;3.83;;;1.05;;
2219;SDS011;1116;51.502;7.414;2023-10-08T13:00:41;1.20;;;0.50;;
2219;SDS011;1116;51.502;7.414;2023-10-08T13:03:16;0.68;;;0.30;;
2219;SDS011;1116;51.502;7.414;2023-10-08T13:05:53;2.08;;;0.40;;
2219;SDS011;1116;51.502;7.414;2023-10-08T13:08:30;1.67;;;0.50;;
2219;SDS011;1116;51.502;7.414;2023-10-08T13:11:00;0.68;;;0.50;;
2219;SDS011;1116;51.502;7.414;2023-10-08T13:13:31;3.15;;;0.85;;
2219;SDS011;1116;51.502;7.414;2023-10-08T13:16:03;1.73;;;0.40;;
2219;SDS011;1116;51.502;7.414;2023-10-08T13:18:34;1.75;;;0.65;;
2219;SDS011;1116;51.502;7.414;2023-10-08T13:21:12;3.17;;;0.68;;
2219;SDS011;1116;51.502;7.414;2023-10-08T13:23:42;1.58;;;0.60;;
2219;SDS011;1116;51.502;7.414;2023-10-08T13:26:13;1.80;;;0.60;;
2219;SDS011;1116;51.502;7.414;2023-10-08T13:28:43;1.83;;;0.43;;
2219;SDS011;1116;51.502;7.414;2023-10-08T13:31:14;2.33;;;0.50;;
2219;SDS011;1116;51.502;7.414;2023-10-08T13:33:45;1.65;;;0.50;;
2219;SDS011;1116;51.502;7.414;2023-10-08T13:36:21;2.33;;;0.50;;
2219;SDS011;1116;51.502;7.414;2023-10-08T13:38:52;2.90;;;0.70;;
2219;SDS011;1116;51.502;7.414;2023-10-08T13:41:22;1.15;;;0.47;;
2219;SDS011;1116;51.502;7.414;2023-10-08T13:43:55;1.77;;;0.52;;
2219;SDS011;1116;51.502;7.414;2023-10-08T13:46:32;1.40;;;0.50;;
2219;SDS011;1116;51.502;7.414;2023-10-08T13:49:05;0.57;;;0.47;;
2219;SDS011;1116;51.502;7.414;2023-10-08T13:51:39;1.33;;;0.52;;
2219;SDS011;1116;51.502;7.414;2023-10-08T13:54:10;1.65;;;0.68;;
2219;SDS011;1116;51.502;7.414;2023-10-08T13:56:41;2.00;;;0.60;;
2219;SDS011;1116;51.502;7.414;2023-10-08T13:59:15;1.27;;;0.65;;
2219;SDS011;1116;51.502;7.414;2023-10-08T14:01:45;1.65;;;0.63;;
2219;SDS011;1116;51.502;7.414;2023-10-08T14:04:19;1.75;;;0.70;;
2219;SDS011;1116;51.502;7.414;2023-10-08T14:07:00;1.55;;;0.65;;
2219;SDS011;1116;51.502;7.414;2023-10-08T14:09:30;2.85;;;0.80;;
2219;SDS011;1116;51.502;7.414;2023-10-08T14:12:04;1.83;;;0.73;;
2219;SDS011;1116;51.502;7.414;2023-10-08T14:14:37;2.60;;;0.60;;
2219;SDS011;1116;51.502;7.414;2023-10-08T14:17:10;2.28;;;0.80;;
2219;SDS011;1116;51.502;7.414;2023-10-08T14:20:04;2.15;;;1.00;;
2219;SDS011;1116;51.502;7.414;2023-10-08T14:22:42;1.23;;;0.60;;
2219;SDS011;1116;51.502;7.414;2023-10-08T14:25:17;3.88;;;1.10;;
2219;SDS011;1116;51.502;7.414;2023-10-08T14:27:51;2.00;;;1.00;;
2219;SDS011;1116;51.502;7.414;2023-10-08T14:30:31;2.63;;;1.08;;
2219;SDS011;1116;51.502;7.414;2023-10-08T14:33:07;1.40;;;0.90;;
2219;SDS011;1116;51.502;7.414;2023-10-08T14:35:50;6.07;;;1.13;;
2219;SDS011;1116;51.502;7.414;2023-10-08T14:38:35;2.95;;;1.00;;
2219;SDS011;1116;51.502;7.414;2023-10-08T14:41:32;2.90;;;1.00;;
2219;SDS011;1116;51.502;7.414;2023-10-08T14:44:15;1.52;;;1.10;;
2219;SDS011;1116;51.502;7.414;2023-10-08T14:46:45;5.22;;;1.77;;
2219;SDS011;1116;51.502;7.414;2023-10-08T14:49:16;3.40;;;1.38;;
2219;SDS011;1116;51.502;7.414;2023-10-08T14:51:49;2.40;;;1.10;;
2219;SDS011;1116;51.502;7.414;2023-10-08T14:54:23;3.50;;;1.50;;
2219;SDS011;1116;51.502;7.414;2023-10-08T14:56:54;3.17;;;1.42;;
2219;SDS011;1116;51.502;7.414;2023-10-08T14:59:24;3.85;;;1.30;;
2219;SDS011;1116;51.502;7.414;2023-10-08T15:01:57;3.63;;;1.27;;
2219;SDS011;1116;51.502;7.414;2023-10-08T15:04:27;8.23;;;1.42;;
2219;SDS011;1116;51.502;7.414;2023-10-08T15:06:59;3.90;;;1.48;;
2219;SDS011;1116;51.502;7.414;2023-10-08T15:09:31;6.65;;;1.83;;
2219;SDS011;1116;51.502;7.414;2023-10-08T15:12:01;3.83;;;1.48;;
2219;SDS011;1116;51.502;7.414;2023-10-08T15:14:32;5.32;;;1.45;;
2219;SDS011;1116;51.502;7.414;2023-10-08T15:17:04;4.40;;;1.38;;
2219;SDS011;1116;51.502;7.414;2023-10-08T15:19:36;12.07;;;2.58;;
2219;SDS011;1116;51.502;7.414;2023-10-08T15:22:06;4.50;;;1.55;;
2219;SDS011;1116;51.502;7.414;2023-10-08T15:24:38;3.25;;;1.10;;
2219;SDS011;1116;51.502;7.414;2023-10-08T15:27:10;5.38;;;1.48;;
2219;SDS011;1116;51.502;7.414;2023-10-08T15:29:40;4.00;;;1.55;;
2219;SDS011;1116;51.502;7.414;2023-10-08T15:32:10;2.20;;;1.50;;
2219;SDS011;1116;51.502;7.414;2023-10-08T15:34:41;2.97;;;1.48;;
2219;SDS011;1116;51.502;7.414;2023-10-08T15:37:14;2.17;;;1.15;;
2219;SDS011;1116;51.502;7.414;2023-10-08T15:39:47;2.55;;;1.20;;
2219;SDS011;1116;51.502;7.414;2023-10-08T15:42:17;3.88;;;1.38;;
2219;SDS011;1116;51.502;7.414;2023-10-08T15:44:48;5.55;;;1.35;;
2219;SDS011;1116;51.502;7.414;2023-10-08T15:47:18;3.97;;;1.42;;
2219;SDS011;1116;51.502;7.414;2023-10-08T15:49:49;4.97;;;1.48;;
2219;SDS011;1116;51.502;7.414;2023-10-08T15:52:19;2.15;;;1.20;;
2219;SDS011;1116;51.502;7.414;2023-10-08T15:54:51;5.10;;;1.83;;
2219;SDS011;1116;51.502;7.414;2023-10-08T15:57:22;3.33;;;1.40;;
2219;SDS011;1116;51.502;7.414;2023-10-08T15:59:52;2.22;;;1.45;;
2219;SDS011;1116;51.502;7.414;2023-10-08T16:02:23;4.97;;;1.90;;
2219;SDS011;1116;51.502;7.414;2023-10-08T16:04:53;3.35;;;1.80;;
2219;SDS011;1116;51.502;7.414;2023-10-08T16:07:23;6.18;;;2.13;;
2219;SDS011;1116;51.502;7.414;2023-10-08T16:09:56;6.72;;;1.88;;
2219;SDS011;1116;51.502;7.414;2023-10-08T16:12:26;3.60;;;1.83;;